sensor_id;sensor_type;location;lat;lon;timestamp;P1;durP1;ratioP1;P2;durP2;ratioP2
49193;SDS011;35029;50.804;12.866;2022-07-25T00:00:28;13.23;;;10.57;;
49193;SDS011;35029;50.804;12.866;2022-07-25T00:02:54;11.77;;;10.27;;
49193;SDS011;35029;50.804;12.866;2022-07-25T00:05:19;15.45;;;11.25;;
49193;SDS011;35029;50.804;12.866;2022-07-25T00:07:45;13.80;;;11.13;;
49193;SDS011;35029;50.804;12.866;2022-07-25T00:10:11;14.45;;;10.32;;
49193;SDS011;35029;50.804;12.866;2022-07-25T00:12:36;13.55;;;9.50;;
49193;SDS011;35029;50.804;12.866;2022-07-25T00:15:02;10.43;;;9.23;;
49193;SDS011;35029;50.804;12.866;2022-07-25T00:17:28;14.35;;;12.32;;
49193;SDS011;35029;50.804;12.866;2022-07-25T00:19:54;14.02;;;12.57;;
49193;SDS011;35029;50.804;12.866;2022-07-25T00:22:19;14.00;;;12.38;;
49193;SDS011;35029;50.804;12.866;2022-07-25T00:24:45;12.55;;;11.25;;
49193;SDS011;35029;50.804;12.866;2022-07-25T00:27:10;13.07;;;10.48;;
49193;SDS011;35029;50.804;12.866;2022-07-25T00:29:36;11.02;;;9.90;;
49193;SDS011;35029;50.804;12.866;2022-07-25T00:32:01;10.10;;;8.82;;
49193;SDS011;35029;50.804;12.866;2022-07-25T00:34:27;14.43;;;10.73;;
49193;SDS011;35029;50.804;12.866;2022-07-25T00:36:52;12.10;;;10.90;;
49193;SDS011;35029;50.804;12.866;2022-07-25T00:39:18;13.43;;;10.38;;
49193;SDS011;35029;50.804;12.866;2022-07-25T00:41:43;13.32;;;10.48;;
49193;SDS011;35029;50.804;12.866;2022-07-25T00:44:09;14.18;;;10.68;;
49193;SDS011;35029;50.804;12.866;2022-07-25T00:46:49;12.13;;;10.32;;
49193;SDS011;35029;50.804;12.866;2022-07-25T00:49:15;11.63;;;10.52;;
49193;SDS011;35029;50.804;12.866;2022-07-25T00:51:41;12.18;;;10.18;;
49193;SDS011;35029;50.804;12.866;2022-07-25T00:54:07;11.93;;;8.90;;
49193;SDS011;35029;50.804;12.866;2022-07-25T00:56:34;10.23;;;9.13;;
49193;SDS011;35029;50.804;12.866;2022-07-25T00:58:59;11.02;;;9.65;;
49193;SDS011;35029;50.804;12.866;2022-07-25T01:01:25;11.10;;;9.18;;
49193;SDS011;35029;50.804;12.866;2022-07-25T01:03:50;9.88;;;8.50;;
49193;SDS011;35029;50.804;12.866;2022-07-25T01:06:16;9.57;;;8.57;;
49193;SDS011;35029;50.804;12.866;2022-07-25T01:08:42;9.52;;;8.63;;
49193;SDS011;35029;50.804;12.866;2022-07-25T01:11:07;8.73;;;7.90;;
49193;SDS011;35029;50.804;12.866;2022-07-25T01:13:33;11.95;;;8.82;;
49193;SDS011;35029;50.804;12.866;2022-07-25T01:15:59;9.40;;;8.50;;
49193;SDS011;35029;50.804;12.866;2022-07-25T01:18:25;12.52;;;8.85;;
49193;SDS011;35029;50.804;12.866;2022-07-25T01:20:50;9.38;;;8.48;;
49193;SDS011;35029;50.804;12.866;2022-07-25T01:23:16;9.55;;;8.55;;
49193;SDS011;35029;50.804;12.866;2022-07-25T01:25:41;9.10;;;8.10;;
49193;SDS011;35029;50.804;12.866;2022-07-25T01:28:07;8.75;;;7.88;;
49193;SDS011;35029;50.804;12.866;2022-07-25T01:30:32;10.18;;;9.13;;
49193;SDS011;35029;50.804;12.866;2022-07-25T01:32:58;10.50;;;8.15;;
49193;SDS011;35029;50.804;12.866;2022-07-25T01:35:24;9.05;;;8.23;;
49193;SDS011;35029;50.804;12.866;2022-07-25T01:37:50;9.15;;;7.53;;
49193;SDS011;35029;50.804;12.866;2022-07-25T01:40:15;8.75;;;7.85;;
49193;SDS011;35029;50.804;12.866;2022-07-25T01:42:41;8.65;;;7.82;;
49193;SDS011;35029;50.804;12.866;2022-07-25T01:45:07;8.73;;;7.82;;
49193;SDS011;35029;50.804;12.866;2022-07-25T01:47:34;8.65;;;7.38;;
49193;SDS011;35029;50.804;12.866;2022-07-25T01:49:59;8.88;;;7.90;;
49193;SDS011;35029;50.804;12.866;2022-07-25T01:52:25;8.13;;;7.35;;
49193;SDS011;35029;50.804;12.866;2022-07-25T01:54:50;12.05;;;8.02;;
49193;SDS011;35029;50.804;12.866;2022-07-25T01:57:15;9.38;;;8.48;;
49193;SDS011;35029;50.804;12.866;2022-07-25T01:59:41;8.63;;;7.70;;
49193;SDS011;35029;50.804;12.866;2022-07-25T02:02:07;10.32;;;8.77;;
49193;SDS011;35029;50.804;12.866;2022-07-25T02:04:33;8.95;;;8.15;;
49193;SDS011;35029;50.804;12.866;2022-07-25T02:07:00;8.70;;;7.68;;
49193;SDS011;35029;50.804;12.866;2022-07-25T02:09:25;9.07;;;7.93;;
49193;SDS011;35029;50.804;12.866;2022-07-25T02:11:51;9.43;;;7.35;;
49193;SDS011;35029;50.804;12.866;2022-07-25T02:14:19;8.73;;;7.82;;
49193;SDS011;35029;50.804;12.866;2022-07-25T02:16:44;7.40;;;6.80;;
49193;SDS011;35029;50.804;12.866;2022-07-25T02:19:10;8.02;;;7.22;;
49193;SDS011;35029;50.804;12.866;2022-07-25T02:21:35;8.00;;;7.40;;
49193;SDS011;35029;50.804;12.866;2022-07-25T02:24:02;9.20;;;8.30;;
49193;SDS011;35029;50.804;12.866;2022-07-25T02:26:28;8.40;;;7.60;;
49193;SDS011;35029;50.804;12.866;2022-07-25T02:28:53;14.40;;;7.70;;
49193;SDS011;35029;50.804;12.866;2022-07-25T02:31:19;9.05;;;7.90;;
49193;SDS011;35029;50.804;12.866;2022-07-25T02:33:44;8.73;;;7.50;;
49193;SDS011;35029;50.804;12.866;2022-07-25T02:36:10;7.65;;;6.82;;
49193;SDS011;35029;50.804;12.866;2022-07-25T02:38:36;7.90;;;7.20;;
49193;SDS011;35029;50.804;12.866;2022-07-25T02:41:02;8.20;;;7.60;;
49193;SDS011;35029;50.804;12.866;2022-07-25T02:43:28;8.23;;;7.53;;
49193;SDS011;35029;50.804;12.866;2022-07-25T02:45:54;8.43;;;7.65;;
49193;SDS011;35029;50.804;12.866;2022-07-25T02:48:19;8.10;;;7.30;;
49193;SDS011;35029;50.804;12.866;2022-07-25T02:50:45;8.98;;;7.97;;
49193;SDS011;35029;50.804;12.866;2022-07-25T02:53:10;8.38;;;7.55;;
49193;SDS011;35029;50.804;12.866;2022-07-25T02:55:36;9.18;;;8.23;;
49193;SDS011;35029;50.804;12.866;2022-07-25T02:58:01;7.97;;;7.18;;
49193;SDS011;35029;50.804;12.866;2022-07-25T03:00:27;10.70;;;8.20;;
49193;SDS011;35029;50.804;12.866;2022-07-25T03:02:53;8.43;;;7.63;;
49193;SDS011;35029;50.804;12.866;2022-07-25T03:05:18;9.00;;;8.10;;
49193;SDS011;35029;50.804;12.866;2022-07-25T03:07:44;9.15;;;8.25;;
49193;SDS011;35029;50.804;12.866;2022-07-25T03:10:10;8.75;;;7.95;;
49193;SDS011;35029;50.804;12.866;2022-07-25T03:12:36;9.05;;;8.15;;
49193;SDS011;35029;50.804;12.866;2022-07-25T03:15:03;9.27;;;7.90;;
49193;SDS011;35029;50.804;12.866;2022-07-25T03:17:30;9.20;;;8.27;;
49193;SDS011;35029;50.804;12.866;2022-07-25T03:19:56;9.30;;;8.35;;
49193;SDS011;35029;50.804;12.866;2022-07-25T03:22:22;8.68;;;7.78;;
49193;SDS011;35029;50.804;12.866;2022-07-25T03:24:48;8.25;;;7.50;;
49193;SDS011;35029;50.804;12.866;2022-07-25T03:27:14;8.48;;;7.60;;
49193;SDS011;35029;50.804;12.866;2022-07-25T03:29:40;10.10;;;9.00;;
49193;SDS011;35029;50.804;12.866;2022-07-25T03:32:06;8.82;;;7.93;;
49193;SDS011;35029;50.804;12.866;2022-07-25T03:34:32;10.32;;;9.00;;
49193;SDS011;35029;50.804;12.866;2022-07-25T03:36:58;9.07;;;8.05;;
49193;SDS011;35029;50.804;12.866;2022-07-25T03:39:24;9.93;;;8.65;;
49193;SDS011;35029;50.804;12.866;2022-07-25T03:41:50;9.98;;;9.02;;
49193;SDS011;35029;50.804;12.866;2022-07-25T03:44:17;8.63;;;7.80;;
49193;SDS011;35029;50.804;12.866;2022-07-25T03:46:47;9.45;;;8.38;;
49193;SDS011;35029;50.804;12.866;2022-07-25T03:49:12;14.02;;;7.97;;
49193;SDS011;35029;50.804;12.866;2022-07-25T03:51:38;7.88;;;7.18;;
49193;SDS011;35029;50.804;12.866;2022-07-25T03:54:03;9.30;;;7.60;;
49193;SDS011;35029;50.804;12.866;2022-07-25T03:56:31;8.73;;;7.68;;
49193;SDS011;35029;50.804;12.866;2022-07-25T03:59:00;10.30;;;7.77;;
49193;SDS011;35029;50.804;12.866;2022-07-25T04:01:25;9.18;;;8.25;;
49193;SDS011;35029;50.804;12.866;2022-07-25T04:03:51;8.27;;;7.57;;
49193;SDS011;35029;50.804;12.866;2022-07-25T04:06:16;7.50;;;6.80;;
49193;SDS011;35029;50.804;12.866;2022-07-25T04:08:42;10.52;;;8.02;;
49193;SDS011;35029;50.804;12.866;2022-07-25T04:11:08;8.77;;;8.00;;
49193;SDS011;35029;50.804;12.866;2022-07-25T04:13:33;8.95;;;8.07;;
49193;SDS011;35029;50.804;12.866;2022-07-25T04:15:59;10.57;;;8.48;;
49193;SDS011;35029;50.804;12.866;2022-07-25T04:18:24;8.52;;;7.72;;
49193;SDS011;35029;50.804;12.866;2022-07-25T04:20:50;9.60;;;7.72;;
49193;SDS011;35029;50.804;12.866;2022-07-25T04:23:15;9.27;;;8.38;;
49193;SDS011;35029;50.804;12.866;2022-07-25T04:25:41;9.30;;;8.27;;
49193;SDS011;35029;50.804;12.866;2022-07-25T04:28:06;8.15;;;7.47;;
49193;SDS011;35029;50.804;12.866;2022-07-25T04:30:32;9.25;;;8.30;;
49193;SDS011;35029;50.804;12.866;2022-07-25T04:32:57;8.15;;;7.53;;
49193;SDS011;35029;50.804;12.866;2022-07-25T04:35:23;8.98;;;8.13;;
49193;SDS011;35029;50.804;12.866;2022-07-25T04:37:48;9.68;;;8.77;;
49193;SDS011;35029;50.804;12.866;2022-07-25T04:40:14;8.68;;;7.85;;
49193;SDS011;35029;50.804;12.866;2022-07-25T04:42:39;8.13;;;7.43;;
49193;SDS011;35029;50.804;12.866;2022-07-25T04:45:05;8.65;;;7.85;;
49193;SDS011;35029;50.804;12.866;2022-07-25T04:47:31;10.27;;;8.35;;
49193;SDS011;35029;50.804;12.866;2022-07-25T04:49:56;10.52;;;8.27;;
49193;SDS011;35029;50.804;12.866;2022-07-25T04:52:22;8.02;;;7.32;;
49193;SDS011;35029;50.804;12.866;2022-07-25T04:54:47;8.82;;;7.93;;
49193;SDS011;35029;50.804;12.866;2022-07-25T04:57:13;9.27;;;8.38;;
49193;SDS011;35029;50.804;12.866;2022-07-25T04:59:38;9.35;;;8.48;;
49193;SDS011;35029;50.804;12.866;2022-07-25T05:02:04;9.07;;;8.15;;
49193;SDS011;35029;50.804;12.866;2022-07-25T05:04:29;9.70;;;8.75;;
49193;SDS011;35029;50.804;12.866;2022-07-25T05:06:55;10.00;;;8.82;;
49193;SDS011;35029;50.804;12.866;2022-07-25T05:09:20;12.32;;;9.60;;
49193;SDS011;35029;50.804;12.866;2022-07-25T05:11:46;12.75;;;9.45;;
49193;SDS011;35029;50.804;12.866;2022-07-25T05:14:11;14.15;;;9.18;;
49193;SDS011;35029;50.804;12.866;2022-07-25T05:16:37;11.07;;;9.85;;
49193;SDS011;35029;50.804;12.866;2022-07-25T05:19:03;9.15;;;8.35;;
49193;SDS011;35029;50.804;12.866;2022-07-25T05:21:28;11.63;;;9.18;;
49193;SDS011;35029;50.804;12.866;2022-07-25T05:23:54;10.52;;;9.52;;
49193;SDS011;35029;50.804;12.866;2022-07-25T05:26:20;11.10;;;9.45;;
49193;SDS011;35029;50.804;12.866;2022-07-25T05:28:45;11.35;;;9.35;;
49193;SDS011;35029;50.804;12.866;2022-07-25T05:31:11;10.43;;;9.40;;
49193;SDS011;35029;50.804;12.866;2022-07-25T05:33:36;11.68;;;9.07;;
49193;SDS011;35029;50.804;12.866;2022-07-25T05:36:02;9.80;;;8.80;;
49193;SDS011;35029;50.804;12.866;2022-07-25T05:38:29;12.68;;;9.50;;
49193;SDS011;35029;50.804;12.866;2022-07-25T05:40:55;10.52;;;8.98;;
49193;SDS011;35029;50.804;12.866;2022-07-25T05:43:20;8.90;;;8.00;;
49193;SDS011;35029;50.804;12.866;2022-07-25T05:45:46;9.65;;;8.65;;
49193;SDS011;35029;50.804;12.866;2022-07-25T05:48:12;9.48;;;8.50;;
49193;SDS011;35029;50.804;12.866;2022-07-25T05:50:38;11.02;;;8.93;;
49193;SDS011;35029;50.804;12.866;2022-07-25T05:53:04;8.13;;;7.43;;
49193;SDS011;35029;50.804;12.866;2022-07-25T05:55:30;8.88;;;8.07;;
49193;SDS011;35029;50.804;12.866;2022-07-25T05:57:56;11.63;;;7.88;;
49193;SDS011;35029;50.804;12.866;2022-07-25T06:00:21;8.68;;;7.22;;
49193;SDS011;35029;50.804;12.866;2022-07-25T06:02:47;6.97;;;6.28;;
49193;SDS011;35029;50.804;12.866;2022-07-25T06:05:13;8.13;;;6.47;;
49193;SDS011;35029;50.804;12.866;2022-07-25T06:07:38;6.75;;;6.13;;
49193;SDS011;35029;50.804;12.866;2022-07-25T06:10:04;9.68;;;6.57;;
49193;SDS011;35029;50.804;12.866;2022-07-25T06:12:30;8.95;;;6.55;;
49193;SDS011;35029;50.804;12.866;2022-07-25T06:14:58;7.45;;;6.75;;
49193;SDS011;35029;50.804;12.866;2022-07-25T06:17:24;7.30;;;6.43;;
49193;SDS011;35029;50.804;12.866;2022-07-25T06:19:49;7.07;;;6.40;;
49193;SDS011;35029;50.804;12.866;2022-07-25T06:22:15;7.55;;;6.72;;
49193;SDS011;35029;50.804;12.866;2022-07-25T06:24:40;7.85;;;6.40;;
49193;SDS011;35029;50.804;12.866;2022-07-25T06:27:06;7.93;;;6.60;;
49193;SDS011;35029;50.804;12.866;2022-07-25T06:29:32;6.65;;;6.00;;
49193;SDS011;35029;50.804;12.866;2022-07-25T06:31:58;6.93;;;6.10;;
49193;SDS011;35029;50.804;12.866;2022-07-25T06:34:23;7.45;;;6.75;;
49193;SDS011;35029;50.804;12.866;2022-07-25T06:36:49;6.68;;;6.07;;
49193;SDS011;35029;50.804;12.866;2022-07-25T06:39:14;7.10;;;6.40;;
49193;SDS011;35029;50.804;12.866;2022-07-25T06:41:40;6.20;;;5.70;;
49193;SDS011;35029;50.804;12.866;2022-07-25T06:44:06;6.30;;;5.80;;
49193;SDS011;35029;50.804;12.866;2022-07-25T06:46:32;6.68;;;6.07;;
49193;SDS011;35029;50.804;12.866;2022-07-25T06:48:58;7.15;;;5.80;;
49193;SDS011;35029;50.804;12.866;2022-07-25T06:51:24;7.18;;;6.45;;
49193;SDS011;35029;50.804;12.866;2022-07-25T06:53:49;7.40;;;6.25;;
49193;SDS011;35029;50.804;12.866;2022-07-25T06:56:15;8.75;;;6.10;;
49193;SDS011;35029;50.804;12.866;2022-07-25T06:58:41;10.95;;;6.60;;
49193;SDS011;35029;50.804;12.866;2022-07-25T07:01:06;8.82;;;6.20;;
49193;SDS011;35029;50.804;12.866;2022-07-25T07:03:32;10.02;;;6.10;;
49193;SDS011;35029;50.804;12.866;2022-07-25T07:06:05;6.28;;;5.68;;
49193;SDS011;35029;50.804;12.866;2022-07-25T07:08:32;9.00;;;6.25;;
49193;SDS011;35029;50.804;12.866;2022-07-25T07:10:58;6.80;;;6.00;;
49193;SDS011;35029;50.804;12.866;2022-07-25T07:13:24;5.93;;;5.43;;
49193;SDS011;35029;50.804;12.866;2022-07-25T07:15:50;6.85;;;5.78;;
49193;SDS011;35029;50.804;12.866;2022-07-25T07:18:16;6.50;;;5.88;;
49193;SDS011;35029;50.804;12.866;2022-07-25T07:20:42;6.88;;;5.70;;
49193;SDS011;35029;50.804;12.866;2022-07-25T07:23:08;6.60;;;5.82;;
49193;SDS011;35029;50.804;12.866;2022-07-25T07:25:34;7.53;;;6.32;;
49193;SDS011;35029;50.804;12.866;2022-07-25T07:28:00;6.43;;;5.82;;
49193;SDS011;35029;50.804;12.866;2022-07-25T07:30:26;6.05;;;5.55;;
49193;SDS011;35029;50.804;12.866;2022-07-25T07:32:51;5.95;;;5.43;;
49193;SDS011;35029;50.804;12.866;2022-07-25T07:35:17;6.72;;;5.85;;
49193;SDS011;35029;50.804;12.866;2022-07-25T07:37:43;6.50;;;5.90;;
49193;SDS011;35029;50.804;12.866;2022-07-25T07:40:11;6.57;;;6.05;;
49193;SDS011;35029;50.804;12.866;2022-07-25T07:42:41;6.30;;;5.78;;
49193;SDS011;35029;50.804;12.866;2022-07-25T07:47:44;6.78;;;6.15;;
49193;SDS011;35029;50.804;12.866;2022-07-25T07:50:13;6.82;;;6.13;;
49193;SDS011;35029;50.804;12.866;2022-07-25T07:52:41;6.63;;;5.88;;
49193;SDS011;35029;50.804;12.866;2022-07-25T07:55:08;7.15;;;6.57;;
49193;SDS011;35029;50.804;12.866;2022-07-25T07:57:53;10.52;;;5.78;;
49193;SDS011;35029;50.804;12.866;2022-07-25T08:00:19;6.20;;;5.70;;
49193;SDS011;35029;50.804;12.866;2022-07-25T08:02:46;6.68;;;5.97;;
49193;SDS011;35029;50.804;12.866;2022-07-25T08:05:23;6.90;;;5.78;;
49193;SDS011;35029;50.804;12.866;2022-07-25T08:07:52;6.07;;;5.53;;
49193;SDS011;35029;50.804;12.866;2022-07-25T08:10:22;6.80;;;5.75;;
49193;SDS011;35029;50.804;12.866;2022-07-25T08:12:52;8.25;;;6.32;;
49193;SDS011;35029;50.804;12.866;2022-07-25T08:15:18;8.15;;;5.90;;
49193;SDS011;35029;50.804;12.866;2022-07-25T08:17:45;6.63;;;5.95;;
49193;SDS011;35029;50.804;12.866;2022-07-25T08:20:12;8.55;;;6.18;;
49193;SDS011;35029;50.804;12.866;2022-07-25T08:22:39;6.15;;;5.55;;
49193;SDS011;35029;50.804;12.866;2022-07-25T08:25:06;6.05;;;5.55;;
49193;SDS011;35029;50.804;12.866;2022-07-25T08:27:34;6.20;;;5.60;;
49193;SDS011;35029;50.804;12.866;2022-07-25T08:30:00;6.38;;;5.40;;
49193;SDS011;35029;50.804;12.866;2022-07-25T08:32:27;9.63;;;5.28;;
49193;SDS011;35029;50.804;12.866;2022-07-25T08:34:53;7.03;;;5.78;;
49193;SDS011;35029;50.804;12.866;2022-07-25T08:37:19;6.00;;;5.40;;
49193;SDS011;35029;50.804;12.866;2022-07-25T08:39:45;7.63;;;5.47;;
49193;SDS011;35029;50.804;12.866;2022-07-25T08:42:10;6.50;;;5.90;;
49193;SDS011;35029;50.804;12.866;2022-07-25T08:44:37;7.57;;;6.18;;
49193;SDS011;35029;50.804;12.866;2022-07-25T08:49:32;5.85;;;5.35;;
49193;SDS011;35029;50.804;12.866;2022-07-25T08:51:59;6.72;;;5.90;;
49193;SDS011;35029;50.804;12.866;2022-07-25T08:54:26;6.65;;;5.82;;
49193;SDS011;35029;50.804;12.866;2022-07-25T08:56:52;7.05;;;5.18;;
49193;SDS011;35029;50.804;12.866;2022-07-25T08:59:18;8.85;;;5.88;;
49193;SDS011;35029;50.804;12.866;2022-07-25T09:01:44;6.45;;;5.80;;
49193;SDS011;35029;50.804;12.866;2022-07-25T09:04:09;6.50;;;5.90;;
49193;SDS011;35029;50.804;12.866;2022-07-25T09:06:35;6.63;;;6.03;;
49193;SDS011;35029;50.804;12.866;2022-07-25T09:09:02;6.00;;;5.32;;
49193;SDS011;35029;50.804;12.866;2022-07-25T09:11:36;7.32;;;5.78;;
49193;SDS011;35029;50.804;12.866;2022-07-25T09:14:03;6.75;;;5.68;;
49193;SDS011;35029;50.804;12.866;2022-07-25T09:16:31;5.53;;;5.03;;
49193;SDS011;35029;50.804;12.866;2022-07-25T09:19:08;10.82;;;5.70;;
49193;SDS011;35029;50.804;12.866;2022-07-25T09:21:39;5.20;;;4.80;;
49193;SDS011;35029;50.804;12.866;2022-07-25T09:24:09;6.50;;;5.05;;
49193;SDS011;35029;50.804;12.866;2022-07-25T09:26:51;6.47;;;5.32;;
49193;SDS011;35029;50.804;12.866;2022-07-25T09:29:23;5.65;;;5.18;;
49193;SDS011;35029;50.804;12.866;2022-07-25T09:31:58;5.43;;;4.93;;
49193;SDS011;35029;50.804;12.866;2022-07-25T09:34:31;5.57;;;5.07;;
49193;SDS011;35029;50.804;12.866;2022-07-25T09:37:02;8.25;;;5.28;;
49193;SDS011;35029;50.804;12.866;2022-07-25T09:39:40;5.50;;;5.00;;
49193;SDS011;35029;50.804;12.866;2022-07-25T09:42:16;5.75;;;5.10;;
49193;SDS011;35029;50.804;12.866;2022-07-25T09:44:42;5.25;;;4.75;;
49193;SDS011;35029;50.804;12.866;2022-07-25T09:47:09;5.70;;;4.78;;
49193;SDS011;35029;50.804;12.866;2022-07-25T09:49:41;6.38;;;5.78;;
49193;SDS011;35029;50.804;12.866;2022-07-25T09:52:09;6.75;;;5.00;;
49193;SDS011;35029;50.804;12.866;2022-07-25T09:54:36;5.63;;;5.00;;
49193;SDS011;35029;50.804;12.866;2022-07-25T09:57:05;5.78;;;5.28;;
49193;SDS011;35029;50.804;12.866;2022-07-25T09:59:34;5.60;;;5.10;;
49193;SDS011;35029;50.804;12.866;2022-07-25T10:07:11;5.82;;;5.32;;
49193;SDS011;35029;50.804;12.866;2022-07-25T10:09:47;5.25;;;4.80;;
49193;SDS011;35029;50.804;12.866;2022-07-25T10:12:16;5.63;;;5.13;;
49193;SDS011;35029;50.804;12.866;2022-07-25T10:15:02;5.68;;;5.15;;
49193;SDS011;35029;50.804;12.866;2022-07-25T10:17:29;5.60;;;4.95;;
49193;SDS011;35029;50.804;12.866;2022-07-25T10:19:55;5.78;;;5.00;;
49193;SDS011;35029;50.804;12.866;2022-07-25T10:22:21;5.85;;;5.18;;
49193;SDS011;35029;50.804;12.866;2022-07-25T10:24:47;5.38;;;4.95;;
49193;SDS011;35029;50.804;12.866;2022-07-25T10:27:13;6.75;;;4.95;;
49193;SDS011;35029;50.804;12.866;2022-07-25T10:29:48;5.72;;;5.22;;
49193;SDS011;35029;50.804;12.866;2022-07-25T10:32:17;6.03;;;5.53;;
49193;SDS011;35029;50.804;12.866;2022-07-25T10:34:50;5.55;;;5.15;;
49193;SDS011;35029;50.804;12.866;2022-07-25T10:37:18;5.93;;;5.32;;
49193;SDS011;35029;50.804;12.866;2022-07-25T10:39:50;6.07;;;5.47;;
49193;SDS011;35029;50.804;12.866;2022-07-25T10:42:17;4.85;;;4.45;;
49193;SDS011;35029;50.804;12.866;2022-07-25T10:44:50;5.88;;;4.90;;
49193;SDS011;35029;50.804;12.866;2022-07-25T10:47:21;6.22;;;5.03;;
49193;SDS011;35029;50.804;12.866;2022-07-25T10:49:47;6.38;;;4.95;;
49193;SDS011;35029;50.804;12.866;2022-07-25T10:52:21;5.20;;;4.78;;
49193;SDS011;35029;50.804;12.866;2022-07-25T10:54:58;5.68;;;5.18;;
49193;SDS011;35029;50.804;12.866;2022-07-25T10:57:25;5.65;;;5.22;;
49193;SDS011;35029;50.804;12.866;2022-07-25T10:59:51;10.27;;;5.72;;
49193;SDS011;35029;50.804;12.866;2022-07-25T11:02:18;7.10;;;5.65;;
49193;SDS011;35029;50.804;12.866;2022-07-25T11:04:44;7.05;;;5.55;;
49193;SDS011;35029;50.804;12.866;2022-07-25T11:07:13;5.57;;;5.07;;
49193;SDS011;35029;50.804;12.866;2022-07-25T11:09:42;6.78;;;6.00;;
49193;SDS011;35029;50.804;12.866;2022-07-25T11:12:08;6.60;;;5.88;;
49193;SDS011;35029;50.804;12.866;2022-07-25T11:17:14;5.82;;;5.38;;
49193;SDS011;35029;50.804;12.866;2022-07-25T11:20:27;6.55;;;5.95;;
49193;SDS011;35029;50.804;12.866;2022-07-25T11:22:34;6.95;;;5.18;;
49193;SDS011;35029;50.804;12.866;2022-07-25T11:25:01;6.30;;;5.72;;
49193;SDS011;35029;50.804;12.866;2022-07-25T11:27:33;5.85;;;5.38;;
49193;SDS011;35029;50.804;12.866;2022-07-25T11:30:09;5.63;;;5.10;;
49193;SDS011;35029;50.804;12.866;2022-07-25T11:35:11;5.75;;;5.35;;
49193;SDS011;35029;50.804;12.866;2022-07-25T11:37:39;5.68;;;5.18;;
49193;SDS011;35029;50.804;12.866;2022-07-25T11:40:07;5.78;;;5.28;;
49193;SDS011;35029;50.804;12.866;2022-07-25T11:42:39;6.30;;;5.45;;
49193;SDS011;35029;50.804;12.866;2022-07-25T11:45:14;6.07;;;5.57;;
49193;SDS011;35029;50.804;12.866;2022-07-25T11:47:49;6.10;;;5.50;;
49193;SDS011;35029;50.804;12.866;2022-07-25T11:50:35;5.90;;;5.38;;
49193;SDS011;35029;50.804;12.866;2022-07-25T11:53:03;7.20;;;5.07;;
49193;SDS011;35029;50.804;12.866;2022-07-25T11:58:01;5.43;;;4.90;;
49193;SDS011;35029;50.804;12.866;2022-07-25T12:00:27;7.20;;;5.43;;
49193;SDS011;35029;50.804;12.866;2022-07-25T12:02:54;5.03;;;4.53;;
49193;SDS011;35029;50.804;12.866;2022-07-25T12:05:31;5.45;;;4.95;;
49193;SDS011;35029;50.804;12.866;2022-07-25T12:08:06;7.38;;;4.82;;
49193;SDS011;35029;50.804;12.866;2022-07-25T12:10:35;4.90;;;4.10;;
49193;SDS011;35029;50.804;12.866;2022-07-25T12:13:02;5.15;;;4.65;;
49193;SDS011;35029;50.804;12.866;2022-07-25T12:15:32;5.43;;;4.93;;
49193;SDS011;35029;50.804;12.866;2022-07-25T12:18:04;5.20;;;4.65;;
49193;SDS011;35029;50.804;12.866;2022-07-25T12:20:34;6.05;;;5.40;;
49193;SDS011;35029;50.804;12.866;2022-07-25T12:23:04;7.63;;;5.53;;
49193;SDS011;35029;50.804;12.866;2022-07-25T12:25:34;5.38;;;4.95;;
49193;SDS011;35029;50.804;12.866;2022-07-25T12:28:01;10.27;;;5.88;;
49193;SDS011;35029;50.804;12.866;2022-07-25T12:30:27;5.18;;;4.68;;
49193;SDS011;35029;50.804;12.866;2022-07-25T12:32:55;5.80;;;5.30;;
49193;SDS011;35029;50.804;12.866;2022-07-25T12:35:21;6.68;;;5.28;;
49193;SDS011;35029;50.804;12.866;2022-07-25T12:37:48;5.53;;;5.03;;
49193;SDS011;35029;50.804;12.866;2022-07-25T12:40:14;6.95;;;5.20;;
49193;SDS011;35029;50.804;12.866;2022-07-25T12:42:40;6.03;;;4.90;;
49193;SDS011;35029;50.804;12.866;2022-07-25T12:45:07;5.93;;;4.85;;
49193;SDS011;35029;50.804;12.866;2022-07-25T12:47:34;7.95;;;4.85;;
49193;SDS011;35029;50.804;12.866;2022-07-25T12:49:59;5.28;;;4.70;;
49193;SDS011;35029;50.804;12.866;2022-07-25T12:52:25;5.57;;;5.07;;
49193;SDS011;35029;50.804;12.866;2022-07-25T12:54:51;5.93;;;5.05;;
49193;SDS011;35029;50.804;12.866;2022-07-25T12:57:17;6.05;;;4.30;;
49193;SDS011;35029;50.804;12.866;2022-07-25T12:59:45;7.07;;;5.03;;
49193;SDS011;35029;50.804;12.866;2022-07-25T13:02:12;4.68;;;4.25;;
49193;SDS011;35029;50.804;12.866;2022-07-25T13:04:37;5.70;;;5.20;;
49193;SDS011;35029;50.804;12.866;2022-07-25T13:07:04;5.88;;;4.70;;
49193;SDS011;35029;50.804;12.866;2022-07-25T13:09:30;5.35;;;4.55;;
49193;SDS011;35029;50.804;12.866;2022-07-25T13:11:55;7.82;;;4.40;;
49193;SDS011;35029;50.804;12.866;2022-07-25T13:14:21;4.80;;;4.40;;
49193;SDS011;35029;50.804;12.866;2022-07-25T13:16:47;4.97;;;4.47;;
49193;SDS011;35029;50.804;12.866;2022-07-25T13:19:13;5.70;;;4.53;;
49193;SDS011;35029;50.804;12.866;2022-07-25T13:21:40;4.97;;;4.57;;
49193;SDS011;35029;50.804;12.866;2022-07-25T13:24:07;4.85;;;4.45;;
49193;SDS011;35029;50.804;12.866;2022-07-25T13:26:33;5.57;;;4.80;;
49193;SDS011;35029;50.804;12.866;2022-07-25T13:28:59;5.13;;;4.40;;
49193;SDS011;35029;50.804;12.866;2022-07-25T13:31:25;6.95;;;4.25;;
49193;SDS011;35029;50.804;12.866;2022-07-25T13:33:51;7.20;;;4.90;;
49193;SDS011;35029;50.804;12.866;2022-07-25T13:36:17;4.40;;;4.10;;
49193;SDS011;35029;50.804;12.866;2022-07-25T13:38:43;5.18;;;4.60;;
49193;SDS011;35029;50.804;12.866;2022-07-25T13:41:11;4.97;;;4.47;;
49193;SDS011;35029;50.804;12.866;2022-07-25T13:43:37;4.85;;;4.28;;
49193;SDS011;35029;50.804;12.866;2022-07-25T13:46:03;5.30;;;4.28;;
49193;SDS011;35029;50.804;12.866;2022-07-25T13:48:29;5.78;;;5.00;;
49193;SDS011;35029;50.804;12.866;2022-07-25T13:50:55;6.10;;;4.45;;
49193;SDS011;35029;50.804;12.866;2022-07-25T13:53:22;9.23;;;5.28;;
49193;SDS011;35029;50.804;12.866;2022-07-25T13:55:47;5.22;;;4.70;;
49193;SDS011;35029;50.804;12.866;2022-07-25T13:58:13;9.07;;;5.07;;
49193;SDS011;35029;50.804;12.866;2022-07-25T14:00:39;5.18;;;4.78;;
49193;SDS011;35029;50.804;12.866;2022-07-25T14:03:06;5.63;;;5.03;;
49193;SDS011;35029;50.804;12.866;2022-07-25T14:05:32;7.78;;;4.70;;
49193;SDS011;35029;50.804;12.866;2022-07-25T14:07:58;4.70;;;4.30;;
49193;SDS011;35029;50.804;12.866;2022-07-25T14:10:24;5.03;;;4.63;;
49193;SDS011;35029;50.804;12.866;2022-07-25T14:12:50;6.40;;;4.80;;
49193;SDS011;35029;50.804;12.866;2022-07-25T14:15:16;7.82;;;4.80;;
49193;SDS011;35029;50.804;12.866;2022-07-25T14:17:42;4.82;;;4.43;;
49193;SDS011;35029;50.804;12.866;2022-07-25T14:20:09;6.82;;;5.05;;
49193;SDS011;35029;50.804;12.866;2022-07-25T14:22:35;5.60;;;5.10;;
49193;SDS011;35029;50.804;12.866;2022-07-25T14:25:01;4.95;;;4.53;;
49193;SDS011;35029;50.804;12.866;2022-07-25T14:27:26;5.93;;;5.43;;
49193;SDS011;35029;50.804;12.866;2022-07-25T14:29:52;5.57;;;4.70;;
49193;SDS011;35029;50.804;12.866;2022-07-25T14:32:18;5.15;;;4.75;;
49193;SDS011;35029;50.804;12.866;2022-07-25T14:34:43;5.25;;;4.47;;
49193;SDS011;35029;50.804;12.866;2022-07-25T14:37:09;5.68;;;4.10;;
49193;SDS011;35029;50.804;12.866;2022-07-25T14:39:35;6.90;;;4.95;;
49193;SDS011;35029;50.804;12.866;2022-07-25T14:42:01;7.10;;;4.38;;
49193;SDS011;35029;50.804;12.866;2022-07-25T14:44:28;5.63;;;4.93;;
49193;SDS011;35029;50.804;12.866;2022-07-25T14:46:54;5.10;;;4.70;;